Time;durP1;ratioP1;P1;durP2;ratioP2;P2;SDS_P1;SDS_P2;PMS_P1;PMS_P2;Temp;Humidity;BMP_temperature;BMP_pressure;BME280_temperature;BME280_humidity;BME280_pressure;Samples;Min_cycle;Max_cycle;Signal;HPM_P1;HPM_P2
2023/07/21 00:02:03;;;;;;;22.05;4.93;;;;;;;;;;4974018;28;20035;-69
2023/07/21 00:04:29;;;;;;;28.20;4.97;;;;;;;;;;4973836;28;20038;-69
2023/07/21 00:06:54;;;;;;;25.42;4.88;;;;;;;;;;4973767;28;20118;-69
2023/07/21 00:09:19;;;;;;;20.35;4.43;;;;;;;;;;4972618;28;20046;-69
2023/07/21 00:11:45;;;;;;;33.67;5.47;;;;;;;;;;4974102;28;20459;-69
2023/07/21 00:14:11;;;;;;;27.13;5.35;;;;;;;;;;4972664;28;20113;-69
2023/07/21 00:16:37;;;;;;;27.02;4.82;;;;;;;;;;4977512;28;20039;-69
2023/07/21 00:19:02;;;;;;;23.05;4.32;;;;;;;;;;4975939;28;20034;-69
2023/07/21 00:21:28;;;;;;;26.80;5.43;;;;;;;;;;4977252;28;20057;-69
2023/07/21 00:23:54;;;;;;;24.80;5.28;;;;;;;;;;4976681;28;20050;-68
2023/07/21 00:26:20;;;;;;;29.90;5.30;;;;;;;;;;4975947;28;20031;-69
2023/07/21 00:28:45;;;;;;;33.10;6.13;;;;;;;;;;4976377;28;20506;-69
2023/07/21 00:31:11;;;;;;;24.85;4.93;;;;;;;;;;4977158;28;20070;-69
2023/07/21 00:33:37;;;;;;;26.38;5.32;;;;;;;;;;4977220;28;20082;-69
2023/07/21 00:36:04;;;;;;;30.38;5.30;;;;;;;;;;4977074;28;20066;-69
2023/07/21 00:38:30;;;;;;;25.95;4.90;;;;;;;;;;4976475;28;20049;-69
2023/07/21 00:40:55;;;;;;;20.85;5.28;;;;;;;;;;4976049;28;20030;-69
2023/07/21 00:43:21;;;;;;;20.73;4.95;;;;;;;;;;4957616;28;20051;-69
2023/07/21 00:45:49;;;;;;;23.20;5.13;;;;;;;;;;4977028;28;20045;-69
2023/07/21 00:48:17;;;;;;;30.33;5.38;;;;;;;;;;4976899;28;20078;-69
2023/07/21 00:50:45;;;;;;;32.42;5.53;;;;;;;;;;4974659;28;20039;-69
2023/07/21 00:53:11;;;;;;;30.27;5.80;;;;;;;;;;4976657;28;20037;-69
2023/07/21 00:55:38;;;;;;;30.17;5.05;;;;;;;;;;4976822;28;20058;-69
2023/07/21 00:58:07;;;;;;;24.58;5.53;;;;;;;;;;4975472;28;20085;-69
2023/07/21 01:00:33;;;;;;;22.40;5.05;;;;;;;;;;4976486;28;20547;-69
2023/07/21 01:03:00;;;;;;;29.65;5.47;;;;;;;;;;4975544;28;20034;-69
2023/07/21 01:05:26;;;;;;;28.25;5.40;;;;;;;;;;4976521;28;20034;-69
2023/07/21 01:07:51;;;;;;;32.25;5.85;;;;;;;;;;4976503;28;20077;-68
2023/07/21 01:10:20;;;;;;;18.80;4.80;;;;;;;;;;4975108;28;20037;-69
2023/07/21 01:12:45;;;;;;;39.50;5.55;;;;;;;;;;4976469;28;20046;-69
2023/07/21 01:15:11;;;;;;;30.52;5.90;;;;;;;;;;4976642;28;20039;-69
2023/07/21 01:17:37;;;;;;;25.52;5.95;;;;;;;;;;4975049;28;20146;-69
2023/07/21 01:20:04;;;;;;;21.98;5.07;;;;;;;;;;4975143;28;20101;-69
2023/07/21 01:22:40;;;;;;;28.05;5.20;;;;;;;;;;4975272;28;20189;-69
2023/07/21 01:25:09;;;;;;;25.00;5.05;;;;;;;;;;4974602;28;20043;-69
2023/07/21 01:27:39;;;;;;;18.98;4.85;;;;;;;;;;4975158;28;20051;-69
2023/07/21 01:30:10;;;;;;;20.95;4.30;;;;;;;;;;4974993;28;20067;-69
2023/07/21 01:32:37;;;;;;;25.67;4.72;;;;;;;;;;4974803;28;20046;-69
2023/07/21 01:35:03;;;;;;;23.02;5.22;;;;;;;;;;4974894;28;20387;-69
2023/07/21 01:37:31;;;;;;;25.60;5.28;;;;;;;;;;4974795;28;20038;-69
2023/07/21 01:39:57;;;;;;;27.15;4.82;;;;;;;;;;4974864;28;20053;-68
2023/07/21 01:42:29;;;;;;;21.85;4.55;;;;;;;;;;4974695;28;20034;-69
2023/07/21 01:44:54;;;;;;;27.70;4.82;;;;;;;;;;4974923;28;20035;-68
2023/07/21 01:47:21;;;;;;;24.85;4.78;;;;;;;;;;4974552;28;20035;-69
2023/07/21 01:49:46;;;;;;;24.38;4.93;;;;;;;;;;4975920;28;20031;-69
2023/07/21 01:52:14;;;;;;;28.00;5.75;;;;;;;;;;4975743;28;20081;-69
2023/07/21 01:54:49;;;;;;;47.22;5.60;;;;;;;;;;4974582;28;20034;-68
2023/07/21 01:57:20;;;;;;;20.33;4.78;;;;;;;;;;4974340;28;20041;-69
2023/07/21 01:59:46;;;;;;;23.80;4.70;;;;;;;;;;4974354;28;20442;-69
2023/07/21 02:02:12;;;;;;;23.88;4.85;;;;;;;;;;4974410;28;20034;-69
2023/07/21 02:04:38;;;;;;;21.40;4.53;;;;;;;;;;4974309;28;20031;-69
2023/07/21 02:07:04;;;;;;;15.27;4.20;;;;;;;;;;4975447;28;20042;-69
2023/07/21 02:09:29;;;;;;;23.33;4.70;;;;;;;;;;4975411;28;20026;-69
2023/07/21 02:11:55;;;;;;;25.90;5.10;;;;;;;;;;4974281;28;20136;-69
2023/07/21 02:14:22;;;;;;;32.90;5.10;;;;;;;;;;4975405;28;20514;-69
2023/07/21 02:16:47;;;;;;;109.25;7.13;;;;;;;;;;4975254;28;20046;-69
2023/07/21 02:19:12;;;;;;;28.77;4.78;;;;;;;;;;4974040;28;20034;-69
2023/07/21 02:21:38;;;;;;;21.25;4.40;;;;;;;;;;4975195;28;20522;-69
2023/07/21 02:24:03;;;;;;;26.48;5.60;;;;;;;;;;4974124;28;20109;-69
2023/07/21 02:26:29;;;;;;;23.92;4.68;;;;;;;;;;4975060;28;20038;-69
2023/07/21 02:28:54;;;;;;;30.35;5.47;;;;;;;;;;4973794;28;20050;-69
2023/07/21 02:31:21;;;;;;;25.83;4.82;;;;;;;;;;4974861;28;20114;-69
2023/07/21 02:33:47;;;;;;;16.80;4.57;;;;;;;;;;4975249;28;20392;-69
2023/07/21 02:36:13;;;;;;;24.10;4.80;;;;;;;;;;4974921;28;20043;-69
2023/07/21 02:38:39;;;;;;;25.13;4.55;;;;;;;;;;4974244;28;20035;-68
2023/07/21 02:41:04;;;;;;;21.20;4.72;;;;;;;;;;4974052;28;20109;-69
2023/07/21 02:43:31;;;;;;;22.15;4.40;;;;;;;;;;4972898;28;20041;-69
2023/07/21 02:45:56;;;;;;;24.58;5.00;;;;;;;;;;4973778;28;20130;-68
2023/07/21 02:48:22;;;;;;;30.42;5.50;;;;;;;;;;4975207;28;20479;-69
2023/07/21 02:50:52;;;;;;;21.52;4.93;;;;;;;;;;4973516;28;20427;-69
2023/07/21 02:53:19;;;;;;;20.92;4.50;;;;;;;;;;4973675;28;20383;-68
2023/07/21 02:55:45;;;;;;;30.38;5.82;;;;;;;;;;4971671;28;20456;-69
2023/07/21 02:58:12;;;;;;;22.30;5.28;;;;;;;;;;4973422;28;20039;-69
2023/07/21 03:00:38;;;;;;;41.47;6.45;;;;;;;;;;4973251;28;20077;-69
2023/07/21 03:03:04;;;;;;;28.55;5.45;;;;;;;;;;4973374;28;20054;-69
2023/07/21 03:05:30;;;;;;;30.20;5.78;;;;;;;;;;4974673;28;20150;-69
2023/07/21 03:07:58;;;;;;;32.65;6.05;;;;;;;;;;4972505;28;20082;-69
2023/07/21 03:10:24;;;;;;;37.10;6.63;;;;;;;;;;4974445;28;20065;-69
2023/07/21 03:12:49;;;;;;;27.98;5.63;;;;;;;;;;4974555;28;20506;-69
2023/07/21 03:15:15;;;;;;;26.75;5.90;;;;;;;;;;4974440;28;20038;-69
2023/07/21 03:17:40;;;;;;;24.48;5.47;;;;;;;;;;4974311;28;20031;-69
2023/07/21 03:20:11;;;;;;;29.58;6.57;;;;;;;;;;4974547;28;20483;-69
2023/07/21 03:22:36;;;;;;;38.85;6.43;;;;;;;;;;4974228;28;20035;-69
2023/07/21 03:25:05;;;;;;;33.45;6.40;;;;;;;;;;4974646;28;20037;-69
2023/07/21 03:27:30;;;;;;;29.33;6.53;;;;;;;;;;4974198;28;20038;-69
2023/07/21 03:29:56;;;;;;;41.55;6.53;;;;;;;;;;4973238;28;20097;-69
2023/07/21 03:32:21;;;;;;;41.95;6.63;;;;;;;;;;4974215;28;20023;-69
2023/07/21 03:34:49;;;;;;;35.58;6.93;;;;;;;;;;4974063;28;20050;-69
2023/07/21 03:37:14;;;;;;;32.10;6.20;;;;;;;;;;4973811;28;20587;-68
2023/07/21 03:39:44;;;;;;;31.92;6.75;;;;;;;;;;4974418;28;20114;-69
2023/07/21 03:42:09;;;;;;;30.50;6.35;;;;;;;;;;4974049;28;20106;-69
2023/07/21 03:44:35;;;;;;;28.42;5.55;;;;;;;;;;4974021;28;20121;-69
2023/07/21 03:47:00;;;;;;;30.15;6.18;;;;;;;;;;4973479;28;20066;-69
2023/07/21 03:49:25;;;;;;;24.92;6.40;;;;;;;;;;4976128;28;20551;-69
2023/07/21 03:51:51;;;;;;;33.53;6.25;;;;;;;;;;4977941;28;20382;-69
2023/07/21 03:54:16;;;;;;;35.63;6.93;;;;;;;;;;4977989;28;20382;-69
2023/07/21 03:56:41;;;;;;;29.10;6.20;;;;;;;;;;4977699;28;20475;-69
2023/07/21 03:59:07;;;;;;;28.92;6.20;;;;;;;;;;4977811;28;20550;-69
2023/07/21 04:01:32;;;;;;;28.30;5.70;;;;;;;;;;4978057;28;20047;-69
2023/07/21 04:03:57;;;;;;;22.50;5.43;;;;;;;;;;4977988;28;20391;-69
2023/07/21 04:06:24;;;;;;;41.47;6.75;;;;;;;;;;4977535;28;20474;-69
2023/07/21 04:08:51;;;;;;;44.90;6.00;;;;;;;;;;4977685;28;20031;-69
2023/07/21 04:11:17;;;;;;;101.60;8.48;;;;;;;;;;4976978;28;20047;-69
2023/07/21 04:13:42;;;;;;;38.53;6.47;;;;;;;;;;4977445;28;20083;-69
2023/07/21 04:16:07;;;;;;;26.92;5.47;;;;;;;;;;4976993;28;20479;-69
2023/07/21 04:18:32;;;;;;;27.70;5.20;;;;;;;;;;4977408;28;20034;-69
2023/07/21 04:20:58;;;;;;;31.60;6.38;;;;;;;;;;4973513;28;20031;-69
2023/07/21 04:23:23;;;;;;;29.92;5.55;;;;;;;;;;4977166;28;20038;-69
2023/07/21 04:25:48;;;;;;;26.45;5.57;;;;;;;;;;4976989;28;20054;-69
2023/07/21 04:28:14;;;;;;;25.90;5.75;;;;;;;;;;4977138;28;20441;-69
2023/07/21 04:30:39;;;;;;;21.77;4.80;;;;;;;;;;4977194;28;20042;-69
2023/07/21 04:33:04;;;;;;;25.60;6.03;;;;;;;;;;4977326;28;20053;-69
2023/07/21 04:35:30;;;;;;;28.85;6.38;;;;;;;;;;4977428;28;20039;-69
2023/07/21 04:37:56;;;;;;;36.17;6.22;;;;;;;;;;4977202;28;20034;-69
2023/07/21 04:40:21;;;;;;;39.47;6.78;;;;;;;;;;4976798;28;20113;-69
2023/07/21 04:42:47;;;;;;;28.25;6.13;;;;;;;;;;4975760;28;20067;-69
2023/07/21 04:45:13;;;;;;;29.95;6.10;;;;;;;;;;4976502;28;20031;-69
2023/07/21 04:47:40;;;;;;;36.70;6.32;;;;;;;;;;4975659;28;20101;-69
2023/07/21 04:50:06;;;;;;;22.00;5.85;;;;;;;;;;4977050;28;20035;-68
2023/07/21 04:52:31;;;;;;;31.65;5.80;;;;;;;;;;4976593;28;20406;-69
2023/07/21 04:54:57;;;;;;;25.15;6.68;;;;;;;;;;4976775;28;20035;-69
2023/07/21 04:57:22;;;;;;;36.83;6.38;;;;;;;;;;4976735;28;20030;-69
2023/07/21 04:59:47;;;;;;;42.05;6.90;;;;;;;;;;4976155;28;20391;-69
2023/07/21 05:02:13;;;;;;;31.30;5.90;;;;;;;;;;4976460;28;20139;-69
2023/07/21 05:04:38;;;;;;;34.53;6.65;;;;;;;;;;4976485;28;20081;-69
2023/07/21 05:07:04;;;;;;;51.35;6.32;;;;;;;;;;4976702;28;20122;-69
2023/07/21 05:09:30;;;;;;;35.47;6.55;;;;;;;;;;4974321;28;20043;-69
2023/07/21 05:11:55;;;;;;;21.30;5.70;;;;;;;;;;4976276;28;20045;-69
2023/07/21 05:14:22;;;;;;;28.63;6.82;;;;;;;;;;4976868;28;20082;-68
2023/07/21 05:16:47;;;;;;;20.58;5.97;;;;;;;;;;4975478;28;20062;-69
2023/07/21 05:19:12;;;;;;;23.25;6.43;;;;;;;;;;4975026;28;20066;-69
2023/07/21 05:21:38;;;;;;;25.27;5.53;;;;;;;;;;4976308;28;20038;-69
2023/07/21 05:24:03;;;;;;;27.08;6.10;;;;;;;;;;4976069;28;20057;-69
2023/07/21 05:26:30;;;;;;;22.65;6.00;;;;;;;;;;4976263;28;20122;-69
2023/07/21 05:28:57;;;;;;;25.85;5.53;;;;;;;;;;4968758;28;20039;-69
2023/07/21 05:31:22;;;;;;;32.72;6.00;;;;;;;;;;4974801;28;20050;-69
2023/07/21 05:33:48;;;;;;;32.15;6.25;;;;;;;;;;4976171;28;20030;-69
2023/07/21 05:36:13;;;;;;;31.15;5.88;;;;;;;;;;4976101;28;20126;-69
2023/07/21 05:38:38;;;;;;;23.00;6.07;;;;;;;;;;4975911;28;20074;-69
2023/07/21 05:41:07;;;;;;;22.98;5.93;;;;;;;;;;4976082;28;20604;-69
2023/07/21 05:43:32;;;;;;;24.80;5.85;;;;;;;;;;4975634;28;20114;-69
2023/07/21 05:45:58;;;;;;;23.95;6.35;;;;;;;;;;4974867;28;20073;-69
2023/07/21 05:48:26;;;;;;;29.83;6.47;;;;;;;;;;4974521;28;20117;-69
2023/07/21 05:50:52;;;;;;;26.52;7.18;;;;;;;;;;4975868;28;20106;-69
2023/07/21 05:53:17;;;;;;;25.35;6.63;;;;;;;;;;4974707;28;20118;-69
2023/07/21 05:55:43;;;;;;;31.98;5.93;;;;;;;;;;4974457;28;20058;-69
2023/07/21 05:58:11;;;;;;;29.55;6.22;;;;;;;;;;4975805;28;20436;-69
2023/07/21 06:00:36;;;;;;;25.20;5.65;;;;;;;;;;4975167;28;20065;-69
2023/07/21 06:03:02;;;;;;;18.75;5.95;;;;;;;;;;4974350;28;20030;-69
2023/07/21 06:05:28;;;;;;;21.38;6.00;;;;;;;;;;4975270;28;20467;-69
2023/07/21 06:07:54;;;;;;;36.30;6.80;;;;;;;;;;4975523;28;20049;-69
2023/07/21 06:10:19;;;;;;;28.20;6.68;;;;;;;;;;4975620;28;20042;-69
2023/07/21 06:12:44;;;;;;;26.02;6.43;;;;;;;;;;4975306;28;20101;-69
2023/07/21 06:15:10;;;;;;;21.33;6.70;;;;;;;;;;4975335;28;20061;-69
2023/07/21 06:17:35;;;;;;;32.15;6.38;;;;;;;;;;4975242;28;20474;-69
2023/07/21 06:20:01;;;;;;;27.92;6.18;;;;;;;;;;4975150;28;20034;-69
2023/07/21 06:22:26;;;;;;;26.90;6.07;;;;;;;;;;4973882;28;20039;-69
2023/07/21 06:24:52;;;;;;;24.17;6.32;;;;;;;;;;4975240;28;20031;-69
2023/07/21 06:27:18;;;;;;;19.83;5.75;;;;;;;;;;4975325;28;20430;-69
2023/07/21 06:29:43;;;;;;;20.92;5.72;;;;;;;;;;4975041;28;20069;-69
2023/07/21 06:32:09;;;;;;;31.40;6.07;;;;;;;;;;4975186;28;20062;-69
2023/07/21 06:34:34;;;;;;;25.40;6.60;;;;;;;;;;4974976;28;20030;-69
2023/07/21 06:36:59;;;;;;;19.88;6.30;;;;;;;;;;4974687;28;20101;-69
2023/07/21 06:39:25;;;;;;;24.13;6.80;;;;;;;;;;4974903;28;20080;-69
2023/07/21 06:41:51;;;;;;;19.52;5.90;;;;;;;;;;4974924;28;20066;-69
2023/07/21 06:44:20;;;;;;;21.95;6.53;;;;;;;;;;4974999;28;20423;-69
2023/07/21 06:46:47;;;;;;;20.63;6.40;;;;;;;;;;4972224;28;20051;-69
2023/07/21 06:49:14;;;;;;;24.80;6.38;;;;;;;;;;4973848;28;20479;-69
2023/07/21 06:51:40;;;;;;;20.75;5.70;;;;;;;;;;4961908;28;20134;-69
2023/07/21 06:54:07;;;;;;;22.20;6.03;;;;;;;;;;4974600;28;20191;-69
2023/07/21 06:56:33;;;;;;;29.60;6.18;;;;;;;;;;4973573;28;20031;-69
2023/07/21 06:58:58;;;;;;;27.63;5.97;;;;;;;;;;4974650;28;20073;-69
2023/07/21 07:01:24;;;;;;;23.67;7.05;;;;;;;;;;4974564;28;20054;-69
2023/07/21 07:03:49;;;;;;;20.73;6.60;;;;;;;;;;4974675;28;20034;-69
2023/07/21 07:06:14;;;;;;;17.25;6.32;;;;;;;;;;4974720;28;20378;-69
2023/07/21 07:08:40;;;;;;;17.45;6.47;;;;;;;;;;4974605;28;20479;-69
2023/07/21 07:11:05;;;;;;;15.98;6.72;;;;;;;;;;4974262;28;20550;-69
2023/07/21 07:13:30;;;;;;;12.57;5.93;;;;;;;;;;4974550;28;20049;-69
2023/07/21 07:15:56;;;;;;;16.58;6.38;;;;;;;;;;4974425;28;20106;-69
2023/07/21 07:18:21;;;;;;;11.60;5.63;;;;;;;;;;4974314;28;20490;-69
2023/07/21 07:20:52;;;;;;;12.25;5.97;;;;;;;;;;4974514;28;20121;-69
2023/07/21 07:23:18;;;;;;;10.15;5.38;;;;;;;;;;4974283;28;20037;-69
2023/07/21 07:25:48;;;;;;;12.30;5.50;;;;;;;;;;4979716;28;20038;-70
2023/07/21 07:28:14;;;;;;;10.88;4.95;;;;;;;;;;4980770;28;20051;-69
2023/07/21 07:30:39;;;;;;;8.65;4.80;;;;;;;;;;4979631;28;20038;-69
2023/07/21 07:33:05;;;;;;;7.80;4.82;;;;;;;;;;4980704;28;20033;-69
2023/07/21 07:35:30;;;;;;;8.30;5.03;;;;;;;;;;4980785;28;20446;-70
2023/07/21 07:37:56;;;;;;;9.25;5.20;;;;;;;;;;4979945;28;20026;-69
2023/07/21 07:40:21;;;;;;;9.10;5.00;;;;;;;;;;4980578;28;20038;-70
2023/07/21 07:42:47;;;;;;;10.63;5.00;;;;;;;;;;4980617;28;20074;-70
2023/07/21 07:45:12;;;;;;;9.65;5.07;;;;;;;;;;4980783;28;20061;-70
2023/07/21 07:47:38;;;;;;;13.07;4.35;;;;;;;;;;4979434;28;20041;-69
2023/07/21 07:50:04;;;;;;;9.00;4.80;;;;;;;;;;4980730;28;20035;-69
2023/07/21 07:52:30;;;;;;;8.52;4.53;;;;;;;;;;4980577;28;20101;-69
2023/07/21 07:54:56;;;;;;;8.52;4.47;;;;;;;;;;4980393;28;20434;-70
2023/07/21 07:57:25;;;;;;;9.10;4.63;;;;;;;;;;4980426;28;20034;-70
2023/07/21 07:59:50;;;;;;;8.88;4.95;;;;;;;;;;4980357;28;20050;-69
2023/07/21 08:02:15;;;;;;;8.02;4.47;;;;;;;;;;4977009;28;20482;-69
2023/07/21 08:04:41;;;;;;;6.32;4.07;;;;;;;;;;4980440;28;20081;-70
2023/07/21 08:07:07;;;;;;;8.73;3.60;;;;;;;;;;4980425;28;20035;-67
2023/07/21 08:09:32;;;;;;;5.53;3.10;;;;;;;;;;4980280;28;20031;-68
2023/07/21 08:11:57;;;;;;;5.32;3.20;;;;;;;;;;4980523;28;20045;-68
2023/07/21 08:14:24;;;;;;;5.50;2.97;;;;;;;;;;4978968;28;20573;-68
2023/07/21 08:16:49;;;;;;;7.10;2.88;;;;;;;;;;4980052;28;20031;-68
2023/07/21 08:19:14;;;;;;;5.95;2.88;;;;;;;;;;4980247;28;20085;-68
2023/07/21 08:21:40;;;;;;;6.75;2.75;;;;;;;;;;4980355;28;20027;-68
2023/07/21 08:24:05;;;;;;;5.03;2.80;;;;;;;;;;4980172;28;20026;-68
2023/07/21 08:26:30;;;;;;;5.53;2.50;;;;;;;;;;4980477;28;20055;-68
2023/07/21 08:28:56;;;;;;;3.53;2.65;;;;;;;;;;4980354;28;20039;-68
2023/07/21 08:31:21;;;;;;;4.57;2.63;;;;;;;;;;4979034;28;20034;-68
2023/07/21 08:33:47;;;;;;;5.53;2.30;;;;;;;;;;4980111;28;20045;-68
2023/07/21 08:36:12;;;;;;;3.25;2.10;;;;;;;;;;4973828;28;20065;-69
2023/07/21 08:38:37;;;;;;;4.30;2.03;;;;;;;;;;4977172;28;20035;-68
2023/07/21 08:41:05;;;;;;;4.78;2.00;;;;;;;;;;4977059;28;20042;-69
2023/07/21 08:43:31;;;;;;;4.40;2.15;;;;;;;;;;4975975;28;20906;-69
2023/07/21 08:46:01;;;;;;;4.00;2.10;;;;;;;;;;4977215;28;20050;-69
2023/07/21 08:48:27;;;;;;;3.22;1.80;;;;;;;;;;4975683;28;20105;-68
2023/07/21 08:50:57;;;;;;;5.15;2.70;;;;;;;;;;4976981;28;20042;-69
2023/07/21 08:53:26;;;;;;;4.38;2.00;;;;;;;;;;4976051;28;20034;-69
2023/07/21 08:55:59;;;;;;;4.35;2.00;;;;;;;;;;4976972;28;20039;-69
2023/07/21 08:58:25;;;;;;;2.90;1.50;;;;;;;;;;4976737;28;20113;-69
2023/07/21 09:00:52;;;;;;;3.58;1.75;;;;;;;;;;4976515;28;20447;-68
2023/07/21 09:03:29;;;;;;;3.35;1.85;;;;;;;;;;4976831;28;20031;-68
2023/07/21 09:05:57;;;;;;;3.53;2.00;;;;;;;;;;4976333;28;20506;-68
2023/07/21 09:08:28;;;;;;;3.92;1.80;;;;;;;;;;4976742;28;20042;-68
2023/07/21 09:11:00;;;;;;;3.72;2.10;;;;;;;;;;4976307;28;20041;-68
2023/07/21 09:13:28;;;;;;;5.93;1.90;;;;;;;;;;4976427;28;20039;-69
2023/07/21 09:15:55;;;;;;;2.70;1.60;;;;;;;;;;4976221;28;20509;-69
2023/07/21 09:18:35;;;;;;;5.15;1.80;;;;;;;;;;4976518;28;20050;-69
2023/07/21 09:21:00;;;;;;;6.63;2.05;;;;;;;;;;4975260;28;20092;-68
2023/07/21 09:23:29;;;;;;;3.40;1.63;;;;;;;;;;4976282;28;20051;-68
2023/07/21 09:25:57;;;;;;;7.55;1.58;;;;;;;;;;4976488;28;20089;-68
2023/07/21 09:28:40;;;;;;;3.97;1.60;;;;;;;;;;4975085;28;20066;-69
2023/07/21 09:31:06;;;;;;;3.05;1.70;;;;;;;;;;4975989;28;20487;-68
2023/07/21 09:33:40;;;;;;;2.58;1.50;;;;;;;;;;4976053;28;20038;-69
2023/07/21 09:36:10;;;;;;;2.65;1.63;;;;;;;;;;4976193;28;20489;-69
2023/07/21 09:38:38;;;;;;;3.22;1.60;;;;;;;;;;4966597;28;20106;-69
2023/07/21 09:41:04;;;;;;;4.90;1.50;;;;;;;;;;4976117;28;20126;-69
2023/07/21 09:43:31;;;;;;;3.17;1.40;;;;;;;;;;4974737;28;20034;-68
2023/07/21 09:46:00;;;;;;;3.60;1.33;;;;;;;;;;4975976;28;20046;-68
2023/07/21 09:48:27;;;;;;;3.28;1.60;;;;;;;;;;4975408;28;20410;-69
2023/07/21 09:50:57;;;;;;;7.13;1.58;;;;;;;;;;4976056;28;20078;-68
2023/07/21 09:53:25;;;;;;;3.95;1.60;;;;;;;;;;4975930;28;20078;-68
2023/07/21 09:55:52;;;;;;;4.80;1.48;;;;;;;;;;4971206;28;20030;-68
2023/07/21 09:58:18;;;;;;;1.98;1.20;;;;;;;;;;4958496;28;20053;-68
2023/07/21 10:00:44;;;;;;;2.45;1.13;;;;;;;;;;4974112;28;20483;-68
2023/07/21 10:03:11;;;;;;;2.83;1.20;;;;;;;;;;4974164;28;20479;-71
2023/07/21 10:05:38;;;;;;;2.97;1.25;;;;;;;;;;4974519;28;20035;-70
2023/07/21 10:08:04;;;;;;;2.55;1.58;;;;;;;;;;4975578;28;20066;-70
2023/07/21 10:10:30;;;;;;;2.33;1.50;;;;;;;;;;4974193;28;20074;-70
2023/07/21 10:12:56;;;;;;;2.53;1.10;;;;;;;;;;4974070;28;20027;-70
2023/07/21 10:15:22;;;;;;;3.80;1.40;;;;;;;;;;4975457;28;20045;-70
2023/07/21 10:18:09;;;;;;;2.80;1.10;;;;;;;;;;4973303;28;20035;-70
2023/07/21 10:20:49;;;;;;;2.75;1.10;;;;;;;;;;4974140;28;20062;-70
2023/07/21 10:23:18;;;;;;;3.58;1.13;;;;;;;;;;4974158;28;20042;-70
2023/07/21 10:25:47;;;;;;;2.92;1.30;;;;;;;;;;4973976;28;20070;-70
2023/07/21 10:28:13;;;;;;;3.63;1.00;;;;;;;;;;4975174;28;20097;-70
2023/07/21 10:30:39;;;;;;;4.60;1.30;;;;;;;;;;4974031;28;20039;-70
2023/07/21 10:33:17;;;;;;;2.17;0.90;;;;;;;;;;4975001;28;20050;-70
2023/07/21 10:35:42;;;;;;;1.83;0.90;;;;;;;;;;4974944;28;20038;-70
2023/07/21 10:38:14;;;;;;;2.67;1.20;;;;;;;;;;4973926;28;20047;-70
2023/07/21 10:40:43;;;;;;;2.95;1.02;;;;;;;;;;4974065;28;20035;-70
2023/07/21 10:43:09;;;;;;;1.75;0.90;;;;;;;;;;4974161;28;20042;-70
2023/07/21 10:45:34;;;;;;;2.47;1.05;;;;;;;;;;4969051;28;20471;-67
2023/07/21 10:48:11;;;;;;;2.20;1.10;;;;;;;;;;4973341;28;20040;-69
2023/07/21 10:50:39;;;;;;;2.47;1.10;;;;;;;;;;4974031;28;20042;-70
2023/07/21 10:53:05;;;;;;;3.20;1.27;;;;;;;;;;4974773;28;20086;-70
2023/07/21 10:55:30;;;;;;;2.13;0.90;;;;;;;;;;4974167;28;20090;-70
2023/07/21 10:57:56;;;;;;;2.40;1.00;;;;;;;;;;4974121;28;20030;-70
2023/07/21 11:00:22;;;;;;;2.83;1.13;;;;;;;;;;4973319;28;20047;-70
2023/07/21 11:02:53;;;;;;;2.35;0.95;;;;;;;;;;4974468;28;20038;-69
2023/07/21 11:05:19;;;;;;;2.53;1.20;;;;;;;;;;4974815;28;20126;-70
2023/07/21 11:07:44;;;;;;;3.15;1.00;;;;;;;;;;4974340;28;20125;-70
2023/07/21 11:10:09;;;;;;;2.75;1.10;;;;;;;;;;4974261;28;20089;-70
2023/07/21 11:12:36;;;;;;;2.33;1.08;;;;;;;;;;4974120;28;20043;-70
2023/07/21 11:15:03;;;;;;;2.22;1.00;;;;;;;;;;4974545;28;20506;-70
2023/07/21 11:17:31;;;;;;;2.85;1.60;;;;;;;;;;4974081;28;20526;-70
2023/07/21 11:20:05;;;;;;;3.08;1.10;;;;;;;;;;4974107;28;20482;-70
2023/07/21 11:22:30;;;;;;;4.00;1.27;;;;;;;;;;4974342;28;20099;-70
2023/07/21 11:25:11;;;;;;;4.25;1.02;;;;;;;;;;4974575;28;20070;-70
2023/07/21 11:27:43;;;;;;;3.72;1.02;;;;;;;;;;4973023;28;20043;-70
2023/07/21 11:30:10;;;;;;;1.60;0.90;;;;;;;;;;4974456;28;20547;-70
2023/07/21 11:32:36;;;;;;;2.60;1.25;;;;;;;;;;4974236;28;20085;-70
2023/07/21 11:35:03;;;;;;;3.47;1.20;;;;;;;;;;4972891;28;20438;-70
2023/07/21 11:37:36;;;;;;;2.90;1.30;;;;;;;;;;4974118;28;20109;-70
2023/07/21 11:40:08;;;;;;;2.60;1.02;;;;;;;;;;4969276;28;20129;-69
2023/07/21 11:42:44;;;;;;;4.47;1.30;;;;;;;;;;4974336;28;20039;-70
2023/07/21 11:45:41;;;;;;;4.07;1.27;;;;;;;;;;4973122;28;20042;-70
2023/07/21 11:48:15;;;;;;;3.60;1.13;;;;;;;;;;4993306;28;20026;-70
2023/07/21 11:50:52;;;;;;;5.10;1.10;;;;;;;;;;4972934;28;20038;-70
2023/07/21 11:53:22;;;;;;;2.58;1.10;;;;;;;;;;4967084;28;20041;-70
2023/07/21 11:55:47;;;;;;;2.50;1.30;;;;;;;;;;4973402;28;20051;-70
2023/07/21 11:58:13;;;;;;;3.97;1.20;;;;;;;;;;4967148;28;20117;-70
2023/07/21 12:00:39;;;;;;;3.65;1.10;;;;;;;;;;4972616;28;20134;-69
2023/07/21 12:03:05;;;;;;;5.05;0.98;;;;;;;;;;4969794;28;20063;-70
2023/07/21 12:05:31;;;;;;;6.75;1.35;;;;;;;;;;4966058;28;20023;-70
2023/07/21 12:07:57;;;;;;;2.65;1.02;;;;;;;;;;4970182;28;20471;-70
2023/07/21 12:10:22;;;;;;;4.38;1.25;;;;;;;;;;4964808;28;20038;-70
2023/07/21 12:12:48;;;;;;;2.95;1.10;;;;;;;;;;4972098;28;20065;-70
2023/07/21 12:15:13;;;;;;;2.88;1.00;;;;;;;;;;4968480;28;20046;-70
2023/07/21 12:17:39;;;;;;;2.50;1.20;;;;;;;;;;4965771;28;20043;-70
2023/07/21 12:20:11;;;;;;;2.88;1.17;;;;;;;;;;4970447;28;20479;-70
2023/07/21 12:22:38;;;;;;;2.88;0.90;;;;;;;;;;4973373;28;20035;-70
2023/07/21 12:25:03;;;;;;;4.07;1.27;;;;;;;;;;4974268;28;20075;-70
2023/07/21 12:27:29;;;;;;;3.42;0.90;;;;;;;;;;4973075;28;20129;-70
2023/07/21 12:29:54;;;;;;;4.38;0.90;;;;;;;;;;4970543;28;20041;-70
2023/07/21 12:32:20;;;;;;;3.15;1.10;;;;;;;;;;4970719;28;20039;-70
2023/07/21 12:34:45;;;;;;;3.65;1.08;;;;;;;;;;4964181;28;20038;-70
2023/07/21 12:37:11;;;;;;;4.82;1.30;;;;;;;;;;4977267;28;20034;-70
2023/07/21 12:39:36;;;;;;;4.80;1.30;;;;;;;;;;4976959;28;20047;-70
2023/07/21 12:42:02;;;;;;;1.83;0.80;;;;;;;;;;4972348;28;20067;-70
2023/07/21 12:44:27;;;;;;;4.15;1.10;;;;;;;;;;4976968;28;20022;-70
2023/07/21 12:46:52;;;;;;;2.50;1.20;;;;;;;;;;4971254;28;20126;-69
2023/07/21 12:49:18;;;;;;;4.57;1.00;;;;;;;;;;4971463;28;20038;-70
2023/07/21 12:51:43;;;;;;;7.05;1.20;;;;;;;;;;4974894;28;20046;-70
2023/07/21 12:54:09;;;;;;;3.58;1.08;;;;;;;;;;4971662;28;20394;-70
2023/07/21 12:56:34;;;;;;;2.30;0.93;;;;;;;;;;4963540;28;20035;-70
2023/07/21 12:58:59;;;;;;;2.60;1.02;;;;;;;;;;4967585;28;20086;-70
2023/07/21 13:01:25;;;;;;;3.08;1.20;;;;;;;;;;4961420;28;20074;-70
2023/07/21 13:03:50;;;;;;;2.78;1.02;;;;;;;;;;4975852;28;20037;-70
2023/07/21 13:06:16;;;;;;;4.22;1.30;;;;;;;;;;4976746;28;20038;-70
2023/07/21 13:08:41;;;;;;;3.13;1.10;;;;;;;;;;4976692;28;20050;-70
2023/07/21 13:11:06;;;;;;;2.28;1.08;;;;;;;;;;4975422;28;20038;-70
2023/07/21 13:13:32;;;;;;;2.00;0.95;;;;;;;;;;4976722;28;20352;-70
2023/07/21 13:15:57;;;;;;;1.90;1.05;;;;;;;;;;4976412;28;20517;-70
2023/07/21 13:18:22;;;;;;;2.60;1.10;;;;;;;;;;4976323;28;20046;-70
2023/07/21 13:20:48;;;;;;;1.85;1.02;;;;;;;;;;4976445;28;20030;-70
2023/07/21 13:23:13;;;;;;;2.00;0.90;;;;;;;;;;4975527;28;20043;-70
2023/07/21 13:25:38;;;;;;;3.25;1.38;;;;;;;;;;4974197;28;20042;-70
2023/07/21 13:28:04;;;;;;;2.38;0.98;;;;;;;;;;4975289;28;20077;-70
2023/07/21 13:30:29;;;;;;;2.55;1.10;;;;;;;;;;4975676;28;20042;-70
2023/07/21 13:32:54;;;;;;;2.97;1.02;;;;;;;;;;4976098;28;20501;-70
2023/07/21 13:35:19;;;;;;;2.38;1.10;;;;;;;;;;4976359;28;20038;-70
2023/07/21 13:37:45;;;;;;;4.78;1.05;;;;;;;;;;4973474;28;20411;-67
2023/07/21 13:40:10;;;;;;;2.53;1.00;;;;;;;;;;4976229;28;20031;-70
2023/07/21 13:42:36;;;;;;;3.38;1.30;;;;;;;;;;4976300;28;20034;-70
2023/07/21 13:45:01;;;;;;;3.13;1.13;;;;;;;;;;4975799;28;20118;-70
2023/07/21 13:47:27;;;;;;;3.05;0.98;;;;;;;;;;4974709;28;20038;-70
2023/07/21 13:49:54;;;;;;;2.28;1.00;;;;;;;;;;4976125;28;20042;-70
2023/07/21 13:52:19;;;;;;;3.13;1.10;;;;;;;;;;4976169;28;20034;-70
2023/07/21 13:54:44;;;;;;;2.30;1.00;;;;;;;;;;4975770;28;20035;-70
2023/07/21 13:57:10;;;;;;;2.88;1.20;;;;;;;;;;4975734;28;20161;-70
2023/07/21 13:59:35;;;;;;;3.10;1.20;;;;;;;;;;4975580;28;20104;-70
2023/07/21 14:02:00;;;;;;;3.10;1.20;;;;;;;;;;4975607;28;20038;-70
2023/07/21 14:04:26;;;;;;;2.05;1.05;;;;;;;;;;4975677;28;20031;-70
2023/07/21 14:06:51;;;;;;;2.95;0.98;;;;;;;;;;4975369;28;20052;-70
2023/07/21 14:09:17;;;;;;;2.38;1.08;;;;;;;;;;4974331;28;20035;-70
2023/07/21 14:11:42;;;;;;;1.73;1.00;;;;;;;;;;4974577;28;20060;-70
2023/07/21 14:14:07;;;;;;;2.70;0.95;;;;;;;;;;4975356;28;20066;-70
2023/07/21 14:16:33;;;;;;;4.68;1.30;;;;;;;;;;4975520;28;20041;-70
2023/07/21 14:18:59;;;;;;;5.97;1.08;;;;;;;;;;4975205;28;20117;-70
2023/07/21 14:21:29;;;;;;;3.60;1.40;;;;;;;;;;4974166;28;20130;-70
2023/07/21 14:23:54;;;;;;;4.60;1.45;;;;;;;;;;4975234;28;20129;-69
2023/07/21 14:26:20;;;;;;;2.70;1.13;;;;;;;;;;4973744;28;20059;-70
2023/07/21 14:28:45;;;;;;;3.85;1.45;;;;;;;;;;4974971;28;20043;-70
2023/07/21 14:31:10;;;;;;;4.03;1.60;;;;;;;;;;4975157;28;20105;-70
2023/07/21 14:33:36;;;;;;;2.17;1.00;;;;;;;;;;4974305;28;20118;-70